createdAt,value
2023-05-05T00:00:31.030Z,7.50
2023-05-05T00:02:59.453Z,6.73
2023-05-05T00:05:27.987Z,7.40
2023-05-05T00:07:56.396Z,7.50
2023-05-05T00:10:26.296Z,6.93
2023-05-05T00:12:54.675Z,6.90
2023-05-05T00:15:23.064Z,6.93
2023-05-05T00:17:51.495Z,6.43
2023-05-05T00:20:19.927Z,7.30
2023-05-05T00:22:48.490Z,6.90
2023-05-05T00:25:16.976Z,6.90
2023-05-05T00:27:46.833Z,6.87
2023-05-05T00:30:15.322Z,7.30
2023-05-05T00:32:43.746Z,7.63
2023-05-05T00:35:12.381Z,6.73
2023-05-05T00:37:40.758Z,6.77
2023-05-05T00:40:09.834Z,6.20
2023-05-05T00:42:45.833Z,7.03
2023-05-05T00:45:16.304Z,6.63
2023-05-05T00:47:46.857Z,6.87
2023-05-05T00:50:24.529Z,6.93
2023-05-05T00:52:57.080Z,7.37
2023-05-05T00:55:26.124Z,7.17
2023-05-05T00:57:54.650Z,7.30
2023-05-05T01:00:24.490Z,6.90
2023-05-05T01:02:53.035Z,7.63
2023-05-05T01:05:22.958Z,8.17
2023-05-05T01:07:57.093Z,8.10
2023-05-05T01:10:30.037Z,7.87
2023-05-05T01:13:04.436Z,6.77
2023-05-05T01:15:35.920Z,7.87
2023-05-05T01:18:08.354Z,7.60
2023-05-05T01:20:39.964Z,7.60
2023-05-05T01:23:09.398Z,7.80
2023-05-05T01:25:55.959Z,7.70
2023-05-05T01:28:32.995Z,8.00
2023-05-05T01:31:08.057Z,8.77
2023-05-05T01:33:41.997Z,7.60
2023-05-05T01:36:13.836Z,8.43
2023-05-05T01:38:43.917Z,9.23
2023-05-05T01:41:15.669Z,8.20
2023-05-05T01:43:45.798Z,9.07
2023-05-05T01:46:14.610Z,9.63
2023-05-05T01:48:45.956Z,9.50
2023-05-05T01:51:14.690Z,8.63
2023-05-05T01:53:47.139Z,8.00
2023-05-05T01:56:16.798Z,9.70
2023-05-05T01:58:46.055Z,9.43
2023-05-05T02:01:15.848Z,9.47
2023-05-05T02:03:47.077Z,9.20
2023-05-05T02:06:16.745Z,10.90
2023-05-05T02:08:46.247Z,10.57
2023-05-05T02:11:14.721Z,9.90
2023-05-05T02:13:43.898Z,10.60
2023-05-05T02:16:17.207Z,11.20
2023-05-05T02:18:47.757Z,10.17
2023-05-05T02:21:18.101Z,10.93
2023-05-05T02:23:51.545Z,10.83
2023-05-05T02:26:21.915Z,10.63
2023-05-05T02:28:52.806Z,10.93
2023-05-05T02:31:22.191Z,10.50
2023-05-05T02:33:52.681Z,10.83
2023-05-05T02:36:23.114Z,11.23
2023-05-05T02:38:58.082Z,9.60
2023-05-05T02:41:29.686Z,9.50
2023-05-05T02:44:01.413Z,10.50
2023-05-05T02:46:30.885Z,9.17
2023-05-05T02:49:00.953Z,10.17
2023-05-05T02:51:29.451Z,9.57
2023-05-05T02:54:01.264Z,10.37
2023-05-05T02:56:38.287Z,10.67
2023-05-05T02:59:11.023Z,9.43
2023-05-05T03:01:46.405Z,9.43
2023-05-05T03:04:19.240Z,10.23
2023-05-05T03:06:55.565Z,11.57
2023-05-05T03:09:29.551Z,9.70
2023-05-05T03:12:02.252Z,10.20
2023-05-05T03:14:33.505Z,10.10
2023-05-05T03:17:03.210Z,11.27
2023-05-05T03:19:33.875Z,10.13
2023-05-05T03:22:05.240Z,11.33
2023-05-05T03:24:34.967Z,11.27
2023-05-05T03:27:07.778Z,11.43
2023-05-05T03:29:39.423Z,10.63
2023-05-05T03:32:12.540Z,11.70
2023-05-05T03:34:43.712Z,10.20
2023-05-05T03:37:12.131Z,10.47
2023-05-05T03:39:42.460Z,9.67
2023-05-05T03:42:12.639Z,10.47
2023-05-05T03:44:41.243Z,10.57
2023-05-05T03:47:09.854Z,9.63
2023-05-05T03:49:40.372Z,11.07
2023-05-05T03:52:12.621Z,8.63
2023-05-05T03:54:43.102Z,9.27
2023-05-05T03:57:11.534Z,9.90
2023-05-05T03:59:39.938Z,9.63
2023-05-05T04:02:08.671Z,11.53
2023-05-05T04:04:37.436Z,10.03
2023-05-05T04:07:06.157Z,9.63
2023-05-05T04:09:36.329Z,9.93
2023-05-05T04:12:05.058Z,9.70
2023-05-05T04:14:33.994Z,10.00
2023-05-05T04:17:02.691Z,9.20
2023-05-05T04:19:33.923Z,10.30
2023-05-05T04:22:04.203Z,10.20
2023-05-05T04:24:32.845Z,9.30
2023-05-05T04:27:03.199Z,10.40
2023-05-05T04:29:32.634Z,9.50
2023-05-05T04:32:01.403Z,10.00
2023-05-05T04:34:30.178Z,9.70
2023-05-05T04:36:58.597Z,9.27
2023-05-05T04:39:27.287Z,9.70
2023-05-05T04:41:55.841Z,8.90
2023-05-05T04:44:25.782Z,9.73
2023-05-05T04:46:54.394Z,9.17
2023-05-05T04:49:23.167Z,9.90
2023-05-05T04:51:51.768Z,8.43
2023-05-05T04:54:20.164Z,8.90
2023-05-05T04:56:48.757Z,9.60
2023-05-05T04:59:17.511Z,9.30
2023-05-05T05:01:47.487Z,8.87
2023-05-05T05:04:18.472Z,7.67
2023-05-05T05:06:47.047Z,8.60
2023-05-05T05:09:15.584Z,7.67
2023-05-05T05:11:44.163Z,8.30
2023-05-05T05:14:12.620Z,8.70
2023-05-05T05:16:41.067Z,8.00
2023-05-05T05:19:10.938Z,8.37
2023-05-05T05:21:39.578Z,8.67
2023-05-05T05:24:08.037Z,8.03
2023-05-05T05:26:36.550Z,8.80
2023-05-05T05:29:05.918Z,8.40
2023-05-05T05:31:35.081Z,7.70
2023-05-05T05:34:03.897Z,7.77
2023-05-05T05:36:34.259Z,8.63
2023-05-05T05:39:03.132Z,7.40
2023-05-05T05:41:31.528Z,7.33
2023-05-05T05:44:00.137Z,7.23
2023-05-05T05:46:29.464Z,7.03
2023-05-05T05:48:58.299Z,6.80
2023-05-05T05:51:27.976Z,6.33
2023-05-05T05:53:58.943Z,7.23
2023-05-05T05:56:27.745Z,7.20
2023-05-05T05:58:56.633Z,6.50
2023-05-05T06:01:25.292Z,6.93
2023-05-05T06:03:53.934Z,6.30
2023-05-05T06:06:23.651Z,6.33
2023-05-05T06:08:52.227Z,5.77
2023-05-05T06:11:22.346Z,5.75
2023-05-05T06:13:51.256Z,5.50
2023-05-05T06:16:19.654Z,6.10
2023-05-05T06:18:49.034Z,6.25
2023-05-05T06:21:20.557Z,6.85
2023-05-05T06:23:49.044Z,5.90
2023-05-05T06:26:17.991Z,6.20
2023-05-05T06:28:48.257Z,6.43
2023-05-05T06:31:16.647Z,6.18
2023-05-05T06:33:45.138Z,6.07
2023-05-05T06:36:14.135Z,6.45
2023-05-05T06:38:42.551Z,6.10
2023-05-05T06:41:11.020Z,6.40
2023-05-05T06:43:39.640Z,5.30
2023-05-05T06:46:14.534Z,6.20
2023-05-05T06:48:43.424Z,6.80
2023-05-05T06:51:12.068Z,5.38
2023-05-05T06:53:40.431Z,5.72
2023-05-05T06:56:08.949Z,5.90
2023-05-05T06:58:38.077Z,5.43
2023-05-05T07:01:07.854Z,5.78
2023-05-05T07:03:37.887Z,5.85
2023-05-05T07:06:06.651Z,6.00
2023-05-05T07:08:35.339Z,5.75
2023-05-05T07:11:03.803Z,4.80
2023-05-05T07:13:32.250Z,4.97
2023-05-05T07:16:00.904Z,4.20
2023-05-05T07:18:29.355Z,4.32
2023-05-05T07:20:59.150Z,4.85
2023-05-05T07:23:27.787Z,3.83
2023-05-05T07:25:56.628Z,3.40
2023-05-05T07:28:25.061Z,3.55
2023-05-05T07:30:53.734Z,3.85
2023-05-05T07:33:22.310Z,3.60
2023-05-05T07:35:50.714Z,3.20
2023-05-05T07:38:20.620Z,3.90
2023-05-05T07:40:48.998Z,3.70
2023-05-05T07:43:17.453Z,3.38
2023-05-05T07:45:45.920Z,3.42
2023-05-05T07:48:14.398Z,3.40
2023-05-05T07:50:42.814Z,3.70
2023-05-05T07:53:14.934Z,3.60
2023-05-05T07:55:45.069Z,3.92
2023-05-05T07:58:13.551Z,4.30
2023-05-05T08:00:43.777Z,4.20
2023-05-05T08:03:12.433Z,3.80
2023-05-05T08:05:40.999Z,4.15
2023-05-05T08:08:12.217Z,4.00
2023-05-05T08:10:40.815Z,3.58
2023-05-05T08:13:10.610Z,4.50
2023-05-05T08:15:39.231Z,4.88
2023-05-05T08:18:07.705Z,4.32
2023-05-05T08:20:36.705Z,4.30
2023-05-05T08:23:05.161Z,4.35
2023-05-05T08:25:33.610Z,4.57
2023-05-05T08:28:02.050Z,4.93
2023-05-05T08:30:31.849Z,4.82
2023-05-05T08:33:00.680Z,4.25
2023-05-05T08:35:29.193Z,4.38
2023-05-05T08:37:59.246Z,4.03
2023-05-05T08:40:31.169Z,3.97
2023-05-05T08:42:59.630Z,4.22
2023-05-05T08:45:28.232Z,4.45
2023-05-05T08:47:58.391Z,4.72
2023-05-05T08:50:27.956Z,4.07
2023-05-05T08:53:00.281Z,4.65
2023-05-05T08:55:29.883Z,4.20
2023-05-05T08:58:01.012Z,4.50
2023-05-05T09:00:29.722Z,4.18
2023-05-05T09:03:00.741Z,3.80
2023-05-05T09:05:29.428Z,3.45
2023-05-05T09:07:57.822Z,3.15
2023-05-05T09:10:26.383Z,3.17
2023-05-05T09:12:54.887Z,3.90
2023-05-05T09:15:23.348Z,3.65
2023-05-05T09:17:51.861Z,4.05
2023-05-05T09:20:22.198Z,3.55
2023-05-05T09:22:51.377Z,3.85
2023-05-05T09:25:20.159Z,3.60
2023-05-05T09:27:49.290Z,3.70
2023-05-05T09:30:19.018Z,4.63
2023-05-05T09:32:48.934Z,3.85
2023-05-05T09:35:17.772Z,3.40
2023-05-05T09:37:47.900Z,3.38
2023-05-05T09:40:17.906Z,3.78
2023-05-05T09:42:46.756Z,3.50
2023-05-05T09:45:28.185Z,4.30
2023-05-05T09:47:59.541Z,4.57
2023-05-05T09:50:30.962Z,3.83
2023-05-05T09:53:01.838Z,3.15
2023-05-05T09:55:32.140Z,3.50
2023-05-05T09:58:18.659Z,3.08
2023-05-05T10:00:47.584Z,2.63
2023-05-05T10:03:16.403Z,2.70
2023-05-05T10:05:51.785Z,2.53
2023-05-05T10:08:23.122Z,2.70
2023-05-05T10:10:52.627Z,2.30
2023-05-05T10:13:21.679Z,2.70
2023-05-05T10:15:51.776Z,2.28
2023-05-05T10:18:22.473Z,2.55
2023-05-05T10:20:54.282Z,3.03
2023-05-05T10:23:25.543Z,3.13
2023-05-05T10:25:56.740Z,3.00
2023-05-05T10:28:28.449Z,2.90
2023-05-05T10:30:58.645Z,2.75
2023-05-05T10:33:33.874Z,2.92
2023-05-05T10:36:03.590Z,3.17
2023-05-05T10:38:33.888Z,3.40
2023-05-05T10:41:02.935Z,2.50
2023-05-05T10:43:32.053Z,2.53
2023-05-05T10:46:00.906Z,2.70
2023-05-05T10:48:35.080Z,2.90
2023-05-05T10:51:35.308Z,2.55
2023-05-05T10:54:12.508Z,3.00
2023-05-05T10:56:42.460Z,3.20
2023-05-05T10:59:25.882Z,2.90
2023-05-05T11:01:54.584Z,2.85
2023-05-05T11:04:23.542Z,3.22
2023-05-05T11:07:14.750Z,2.95
2023-05-05T11:09:56.980Z,2.72
2023-05-05T11:12:25.413Z,2.58
2023-05-05T11:15:23.687Z,2.70
2023-05-05T11:17:52.411Z,3.30
2023-05-05T11:20:40.980Z,3.03
2023-05-05T11:23:24.602Z,3.10
2023-05-05T11:25:54.718Z,2.88
2023-05-05T11:28:26.025Z,3.00
2023-05-05T11:31:10.021Z,3.10
2023-05-05T11:33:39.257Z,2.90
2023-05-05T11:36:08.562Z,2.85
2023-05-05T11:38:56.780Z,3.60
2023-05-05T11:41:32.658Z,2.83
2023-05-05T11:44:10.846Z,2.85
2023-05-05T11:46:39.467Z,2.75
2023-05-05T11:49:09.094Z,2.85
2023-05-05T11:51:37.781Z,2.42
2023-05-05T11:54:06.639Z,3.00
2023-05-05T11:56:36.396Z,2.60
2023-05-05T11:59:09.733Z,2.50
2023-05-05T12:01:41.104Z,2.45
2023-05-05T12:04:10.501Z,2.40
2023-05-05T12:06:38.991Z,2.20
2023-05-05T12:09:08.369Z,2.90
2023-05-05T12:11:49.474Z,2.75
2023-05-05T12:14:17.904Z,2.50
2023-05-05T12:16:55.669Z,2.67
2023-05-05T12:19:24.417Z,2.70
2023-05-05T12:21:54.321Z,2.97
2023-05-05T12:24:22.898Z,2.70
2023-05-05T12:26:52.754Z,2.85
2023-05-05T12:29:25.587Z,3.30
2023-05-05T12:31:54.210Z,3.10
2023-05-05T12:34:23.050Z,3.15
2023-05-05T12:36:51.758Z,3.95
2023-05-05T12:39:20.627Z,3.08
2023-05-05T12:41:49.410Z,3.05
2023-05-05T12:44:19.361Z,3.83
2023-05-05T12:46:47.958Z,3.30
2023-05-05T12:49:16.922Z,2.70
2023-05-05T12:51:54.490Z,2.40
2023-05-05T12:54:24.341Z,2.47
2023-05-05T12:56:52.740Z,2.50
2023-05-05T12:59:32.122Z,2.90
2023-05-05T13:02:01.555Z,2.50
2023-05-05T13:04:30.273Z,2.40
2023-05-05T13:07:20.196Z,2.40
2023-05-05T13:09:49.148Z,2.80
2023-05-05T13:12:19.142Z,2.92
2023-05-05T13:14:48.941Z,2.80
2023-05-05T13:17:17.315Z,2.60
2023-05-05T13:19:46.996Z,2.60
2023-05-05T13:22:15.719Z,2.70
2023-05-05T13:24:52.372Z,2.47
2023-05-05T13:27:21.882Z,2.50
2023-05-05T13:29:51.629Z,2.30
2023-05-05T13:32:20.004Z,2.50
2023-05-05T13:34:48.512Z,3.10
2023-05-05T13:37:16.966Z,2.65
2023-05-05T13:39:45.338Z,2.55
2023-05-05T13:42:14.004Z,2.50
2023-05-05T13:44:42.411Z,2.95
2023-05-05T13:47:14.072Z,3.05
2023-05-05T13:49:42.886Z,3.10
2023-05-05T13:52:11.612Z,2.78
2023-05-05T13:54:40.007Z,2.22
2023-05-05T13:57:08.901Z,2.40
2023-05-05T13:59:37.384Z,2.83
2023-05-05T14:02:06.217Z,2.70
2023-05-05T14:04:36.040Z,2.70
2023-05-05T14:07:04.844Z,2.42
2023-05-05T14:09:33.317Z,2.25
2023-05-05T14:12:02.390Z,2.50
2023-05-05T14:14:30.909Z,2.33
2023-05-05T14:16:59.443Z,2.30
2023-05-05T14:19:27.990Z,2.47
2023-05-05T14:21:58.409Z,2.53
2023-05-05T14:24:27.284Z,2.20
2023-05-05T14:26:55.691Z,2.30
2023-05-05T14:29:24.193Z,1.98
2023-05-05T14:31:52.684Z,2.40
2023-05-05T14:34:21.084Z,2.47
2023-05-05T14:36:49.770Z,2.63
2023-05-05T14:39:19.518Z,2.83
2023-05-05T14:41:47.894Z,2.85
2023-05-05T14:44:16.317Z,3.03
2023-05-05T14:46:46.188Z,2.88
2023-05-05T14:49:14.990Z,2.85
2023-05-05T14:51:43.622Z,2.65
2023-05-05T14:54:26.866Z,2.70
2023-05-05T14:56:58.325Z,2.40
2023-05-05T14:59:27.494Z,2.97
2023-05-05T15:01:56.001Z,2.38
2023-05-05T15:04:24.716Z,2.97
2023-05-05T15:06:53.110Z,2.97
2023-05-05T15:09:21.496Z,2.78
2023-05-05T15:11:49.863Z,2.75
2023-05-05T15:14:19.677Z,2.80
2023-05-05T15:16:48.093Z,2.95
2023-05-05T15:19:16.491Z,3.42
2023-05-05T15:21:44.895Z,3.10
2023-05-05T15:24:13.248Z,3.25
2023-05-05T15:26:41.632Z,3.45
2023-05-05T15:29:09.999Z,3.35
2023-05-05T15:31:39.796Z,3.65
2023-05-05T15:34:08.166Z,2.88
2023-05-05T15:36:36.551Z,2.53
2023-05-05T15:39:05.133Z,2.55
2023-05-05T15:41:35.352Z,2.65
2023-05-05T15:44:04.853Z,2.88
2023-05-05T15:46:34.181Z,2.78
2023-05-05T15:49:03.911Z,3.08
2023-05-05T15:51:32.631Z,2.90
2023-05-05T15:54:01.613Z,2.80
2023-05-05T15:56:30.048Z,2.85
2023-05-05T15:58:58.481Z,2.90
2023-05-05T16:01:26.966Z,3.38
2023-05-05T16:03:55.426Z,3.38
2023-05-05T16:06:25.138Z,2.85
2023-05-05T16:08:53.604Z,2.42
2023-05-05T16:11:23.494Z,2.60
2023-05-05T16:13:51.877Z,3.00
2023-05-05T16:16:20.437Z,2.83
2023-05-05T16:18:49.060Z,2.70
2023-05-05T16:21:17.424Z,2.67
2023-05-05T16:23:47.433Z,2.70
2023-05-05T16:26:15.857Z,3.00
2023-05-05T16:28:44.322Z,2.80
2023-05-05T16:31:13.530Z,3.10
2023-05-05T16:33:43.629Z,3.25
2023-05-05T16:36:12.814Z,3.20
2023-05-05T16:38:41.275Z,3.10
2023-05-05T16:41:11.993Z,3.20
2023-05-05T16:43:40.387Z,2.85
2023-05-05T16:46:08.799Z,3.60
2023-05-05T16:48:37.248Z,3.67
2023-05-05T16:51:05.720Z,3.58
2023-05-05T16:53:34.104Z,3.33
2023-05-05T16:56:02.759Z,3.47
2023-05-05T16:58:32.590Z,3.22
2023-05-05T17:01:02.742Z,3.65
2023-05-05T17:03:31.089Z,3.33
2023-05-05T17:05:59.731Z,3.50
2023-05-05T17:08:28.261Z,3.58
2023-05-05T17:10:56.728Z,3.83
2023-05-05T17:13:25.194Z,3.30
2023-05-05T17:15:54.989Z,3.83
2023-05-05T17:18:25.806Z,3.50
2023-05-05T17:20:54.440Z,3.80
2023-05-05T17:23:23.310Z,3.92
2023-05-05T17:25:51.700Z,3.85
2023-05-05T17:28:20.141Z,3.60
2023-05-05T17:30:48.694Z,3.92
2023-05-05T17:33:21.366Z,4.22
2023-05-05T17:35:49.937Z,4.40
2023-05-05T17:38:18.824Z,4.43
2023-05-05T17:40:50.270Z,4.53
2023-05-05T17:43:25.633Z,4.97
2023-05-05T17:46:18.619Z,4.80
2023-05-05T17:49:39.546Z,4.95
2023-05-05T17:52:08.077Z,4.97
2023-05-05T17:54:38.515Z,5.78
2023-05-05T17:57:09.869Z,5.05
2023-05-05T17:59:39.251Z,6.35
2023-05-05T18:02:07.752Z,6.78
2023-05-05T18:04:38.967Z,6.97
2023-05-05T18:07:07.570Z,7.43
2023-05-05T18:09:36.436Z,7.30
2023-05-05T18:12:05.321Z,6.95
2023-05-05T18:14:34.063Z,5.00
2023-05-05T18:17:05.878Z,2.50
2023-05-05T18:19:35.647Z,2.50
2023-05-05T18:22:05.666Z,1.80
2023-05-05T18:24:34.653Z,1.55
2023-05-05T18:27:03.745Z,1.30
2023-05-05T18:29:33.163Z,1.20
2023-05-05T18:32:01.955Z,1.40
2023-05-05T18:34:31.747Z,1.47
2023-05-05T18:37:00.926Z,1.40
2023-05-05T18:39:32.495Z,1.50
2023-05-05T18:42:00.903Z,1.70
2023-05-05T18:44:29.586Z,1.70
2023-05-05T18:46:59.909Z,1.87
2023-05-05T18:49:31.053Z,1.80
2023-05-05T18:51:59.914Z,2.50
2023-05-05T18:54:29.084Z,2.90
2023-05-05T18:56:59.414Z,3.10
2023-05-05T18:59:27.847Z,3.33
2023-05-05T19:01:56.559Z,3.60
2023-05-05T19:04:31.185Z,4.07
2023-05-05T19:07:00.253Z,3.87
2023-05-05T19:09:29.026Z,5.07
2023-05-05T19:11:58.835Z,4.03
2023-05-05T19:14:27.830Z,4.67
2023-05-05T19:16:59.356Z,4.57
2023-05-05T19:19:28.164Z,5.40
2023-05-05T19:21:58.062Z,4.43
2023-05-05T19:24:26.577Z,4.30
2023-05-05T19:26:55.324Z,4.60
2023-05-05T19:29:25.208Z,5.60
2023-05-05T19:31:54.089Z,5.13
2023-05-05T19:34:22.530Z,4.53
2023-05-05T19:36:51.309Z,4.67
2023-05-05T19:39:19.820Z,23.87
2023-05-05T19:41:48.362Z,6.00
2023-05-05T19:44:16.864Z,4.80
2023-05-05T19:46:46.925Z,4.67
2023-05-05T19:49:15.612Z,5.20
2023-05-05T19:51:46.282Z,5.40
2023-05-05T19:54:15.129Z,5.00
2023-05-05T19:56:43.664Z,5.03
2023-05-05T19:59:12.579Z,4.23
2023-05-05T20:01:41.438Z,5.20
2023-05-05T20:04:11.475Z,4.90
2023-05-05T20:06:40.017Z,4.63
2023-05-05T20:09:10.127Z,4.50
2023-05-05T20:11:39.123Z,4.33
2023-05-05T20:14:07.566Z,4.13
2023-05-05T20:16:36.573Z,3.47
2023-05-05T20:19:05.442Z,3.90
2023-05-05T20:21:35.622Z,3.57
2023-05-05T20:24:04.311Z,3.87
2023-05-05T20:26:32.890Z,3.67
2023-05-05T20:29:01.310Z,3.70
2023-05-05T20:31:31.901Z,3.50
2023-05-05T20:34:00.904Z,3.57
2023-05-05T20:36:29.383Z,3.30
2023-05-05T20:38:59.369Z,3.87
2023-05-05T20:41:27.770Z,3.70
2023-05-05T20:43:56.213Z,3.90
2023-05-05T20:46:24.709Z,4.27
2023-05-05T20:48:53.303Z,4.47
2023-05-05T20:51:21.903Z,3.53
2023-05-05T20:53:50.746Z,4.43
2023-05-05T20:56:21.054Z,4.80
2023-05-05T20:58:49.502Z,4.40
2023-05-05T21:01:18.250Z,4.80
2023-05-05T21:03:46.815Z,4.63
2023-05-05T21:06:15.529Z,4.17
2023-05-05T21:08:44.194Z,4.10
2023-05-05T21:11:12.728Z,4.10
2023-05-05T21:13:42.544Z,3.70
2023-05-05T21:16:11.111Z,4.03
2023-05-05T21:18:39.481Z,4.00
2023-05-05T21:21:08.187Z,3.33
2023-05-05T21:23:36.733Z,3.53
2023-05-05T21:26:05.192Z,3.90
2023-05-05T21:28:33.582Z,4.37
2023-05-05T21:33:35.035Z,3.77
2023-05-05T21:36:03.732Z,3.80
2023-05-05T21:38:32.205Z,3.60
2023-05-05T21:41:00.893Z,3.60
2023-05-05T21:43:29.423Z,3.67
2023-05-05T21:46:01.041Z,3.90
2023-05-05T21:48:31.200Z,4.10
2023-05-05T21:50:59.962Z,3.80
2023-05-05T21:53:28.383Z,4.33
2023-05-05T21:55:57.235Z,3.90
2023-05-05T21:58:26.082Z,4.30
2023-05-05T22:00:55.403Z,3.27
2023-05-05T22:03:24.359Z,3.67
2023-05-05T22:05:54.234Z,4.77
2023-05-05T22:08:22.867Z,4.20
2023-05-05T22:10:51.737Z,4.10
2023-05-05T22:13:20.297Z,3.90
2023-05-05T22:15:48.918Z,3.70
2023-05-05T22:18:17.612Z,3.40
2023-05-05T22:20:46.869Z,4.33
2023-05-05T22:23:17.312Z,4.90
2023-05-05T22:25:46.919Z,4.47
2023-05-05T22:28:15.402Z,4.30
2023-05-05T22:30:44.267Z,4.80
2023-05-05T22:33:12.735Z,4.63
2023-05-05T22:35:41.410Z,5.17
2023-05-05T22:38:10.005Z,5.07
2023-05-05T22:40:39.869Z,4.80
2023-05-05T22:43:08.326Z,4.90
2023-05-05T22:45:36.847Z,5.23
2023-05-05T22:48:05.451Z,4.40
2023-05-05T22:50:34.070Z,4.87
2023-05-05T22:53:02.612Z,4.13
2023-05-05T22:55:31.507Z,4.37
2023-05-05T22:58:01.608Z,5.70
2023-05-05T23:00:30.884Z,5.37
2023-05-05T23:02:59.366Z,4.87
2023-05-05T23:05:30.473Z,4.93
2023-05-05T23:08:01.275Z,5.53
2023-05-05T23:10:31.483Z,3.83
2023-05-05T23:13:01.604Z,5.20
2023-05-05T23:15:31.314Z,4.17
2023-05-05T23:17:59.820Z,5.13
2023-05-05T23:20:28.493Z,3.90
2023-05-05T23:22:57.236Z,4.60
2023-05-05T23:25:25.772Z,4.33
2023-05-05T23:27:54.214Z,4.70
2023-05-05T23:30:24.129Z,5.20
2023-05-05T23:32:52.623Z,5.60
2023-05-05T23:35:21.559Z,5.27
2023-05-05T23:37:50.336Z,4.53
2023-05-05T23:40:19.245Z,5.03
2023-05-05T23:42:47.738Z,4.93
2023-05-05T23:45:18.683Z,4.70
2023-05-05T23:47:49.441Z,5.00
2023-05-05T23:50:20.741Z,4.37
2023-05-05T23:52:49.172Z,4.57
2023-05-05T23:55:17.505Z,4.67
2023-05-05T23:57:46.033Z,5.43
